createdAt,value
2019-02-26T00:01:05.447Z,1.20
2019-02-26T00:02:06.606Z,2.00
2019-02-26T00:03:07.746Z,1.27
2019-02-26T00:04:08.895Z,1.52
2019-02-26T00:05:10.034Z,1.80
2019-02-26T00:06:11.180Z,1.65
2019-02-26T00:07:14.232Z,1.47
2019-02-26T00:08:19.394Z,1.90
2019-02-26T00:09:22.371Z,1.77
2019-02-26T00:10:24.768Z,1.60
2019-02-26T00:11:26.710Z,2.00
2019-02-26T00:12:28.785Z,1.80
2019-02-26T00:13:31.938Z,1.37
2019-02-26T00:14:33.711Z,1.70
2019-02-26T00:15:35.843Z,1.42
2019-02-26T00:16:39.994Z,1.75
2019-02-26T00:17:43.176Z,1.67
2019-02-26T00:18:44.080Z,1.70
2019-02-26T00:19:45.219Z,2.00
2019-02-26T00:20:46.462Z,1.75
2019-02-26T00:21:49.634Z,1.57
2019-02-26T00:22:50.667Z,2.02
2019-02-26T00:23:53.140Z,1.30
2019-02-26T00:24:54.467Z,1.55
2019-02-26T00:25:55.621Z,1.70
2019-02-26T00:26:58.527Z,1.45
2019-02-26T00:27:59.914Z,1.67
2019-02-26T00:29:01.860Z,1.90
2019-02-26T00:30:11.323Z,1.98
2019-02-26T00:31:13.960Z,1.60
2019-02-26T00:32:16.167Z,1.50
2019-02-26T00:33:19.567Z,1.75
2019-02-26T00:34:21.319Z,1.87
2019-02-26T00:35:23.589Z,1.90
2019-02-26T00:36:27.121Z,1.82
2019-02-26T00:37:30.591Z,1.87
2019-02-26T00:38:33.056Z,1.75
2019-02-26T00:39:34.675Z,1.67
2019-02-26T00:40:37.115Z,2.22
2019-02-26T00:41:40.385Z,1.63
2019-02-26T00:42:41.713Z,1.80
2019-02-26T00:43:42.872Z,1.90
2019-02-26T00:44:44.098Z,1.50
2019-02-26T00:45:45.238Z,2.00
2019-02-26T00:46:46.380Z,2.10
2019-02-26T00:47:47.523Z,1.98
2019-02-26T00:48:48.675Z,1.57
2019-02-26T00:49:51.111Z,1.60
2019-02-26T00:50:54.387Z,1.57
2019-02-26T00:51:56.003Z,1.85
2019-02-26T00:52:59.401Z,1.72
2019-02-26T00:54:01.843Z,1.57
2019-02-26T00:55:05.400Z,1.72
2019-02-26T00:56:09.773Z,1.70
2019-02-26T00:57:11.523Z,2.02
2019-02-26T00:58:13.579Z,1.62
2019-02-26T00:59:14.759Z,1.72
2019-02-26T01:00:16.408Z,1.70
2019-02-26T01:01:19.397Z,2.20
2019-02-26T01:02:20.599Z,1.60
2019-02-26T01:03:21.738Z,1.42
2019-02-26T01:04:22.893Z,1.67
2019-02-26T01:05:24.030Z,1.95
2019-02-26T01:06:26.807Z,1.77
2019-02-26T01:07:30.279Z,1.92
2019-02-26T01:08:31.481Z,1.95
2019-02-26T01:09:33.999Z,1.37
2019-02-26T01:10:37.542Z,1.52
2019-02-26T01:11:38.470Z,1.37
2019-02-26T01:12:40.208Z,1.67
2019-02-26T01:13:42.758Z,1.40
2019-02-26T01:14:45.799Z,1.80
2019-02-26T01:15:47.058Z,1.40
2019-02-26T01:16:48.354Z,1.90
2019-02-26T01:17:49.547Z,1.87
2019-02-26T01:18:51.477Z,1.90
2019-02-26T01:19:54.361Z,1.90
2019-02-26T01:20:57.911Z,1.90
2019-02-26T01:21:59.987Z,1.95
2019-02-26T01:23:01.234Z,1.70
2019-02-26T01:24:04.216Z,2.15
2019-02-26T01:25:07.132Z,2.15
2019-02-26T01:26:10.060Z,1.50
2019-02-26T01:27:11.319Z,2.00
2019-02-26T01:28:16.106Z,1.95
2019-02-26T01:29:18.605Z,1.90
2019-02-26T01:30:23.569Z,1.77
2019-02-26T01:31:22.493Z,1.65
2019-02-26T01:32:24.987Z,1.50
2019-02-26T01:33:27.781Z,1.62
2019-02-26T01:34:29.163Z,1.70
2019-02-26T01:35:32.945Z,1.77
2019-02-26T01:36:33.764Z,2.23
2019-02-26T01:37:36.606Z,1.47
2019-02-26T01:38:41.553Z,1.82
2019-02-26T01:39:42.985Z,1.70
2019-02-26T01:40:46.075Z,1.73
2019-02-26T01:41:47.836Z,1.72
2019-02-26T01:42:52.897Z,1.47
2019-02-26T01:43:53.292Z,1.52
2019-02-26T01:44:54.434Z,1.60
2019-02-26T01:45:55.586Z,1.80
2019-02-26T01:46:58.284Z,1.73
2019-02-26T01:47:59.887Z,1.80
2019-02-26T01:49:02.174Z,1.42
2019-02-26T01:50:08.758Z,1.65
2019-02-26T01:51:09.535Z,1.65
2019-02-26T01:52:12.705Z,1.72
2019-02-26T01:53:14.597Z,1.80
2019-02-26T01:54:16.902Z,1.93
2019-02-26T01:55:18.883Z,1.62
2019-02-26T01:56:21.268Z,1.90
2019-02-26T01:57:22.411Z,1.72
2019-02-26T01:58:23.553Z,1.50
2019-02-26T01:59:24.799Z,1.32
2019-02-26T02:00:26.100Z,1.55
2019-02-26T02:01:27.772Z,1.10
2019-02-26T02:02:30.308Z,1.52
2019-02-26T02:03:32.618Z,1.67
2019-02-26T02:04:34.893Z,1.22
2019-02-26T02:05:37.052Z,1.45
2019-02-26T02:06:39.180Z,1.82
2019-02-26T02:07:41.282Z,1.72
2019-02-26T02:08:45.434Z,1.25
2019-02-26T02:09:48.653Z,1.50
2019-02-26T02:10:51.403Z,1.25
2019-02-26T02:11:51.805Z,1.73
2019-02-26T02:12:55.227Z,1.80
2019-02-26T02:13:56.001Z,1.80
2019-02-26T02:14:57.147Z,2.00
2019-02-26T02:15:59.729Z,1.50
2019-02-26T02:17:03.514Z,1.90
2019-02-26T02:18:06.117Z,1.57
2019-02-26T02:19:07.512Z,1.70
2019-02-26T02:20:18.084Z,1.70
2019-02-26T02:21:18.228Z,1.45
2019-02-26T02:22:21.250Z,2.10
2019-02-26T02:23:23.570Z,1.70
2019-02-26T02:24:25.493Z,1.95
2019-02-26T02:25:29.017Z,1.72
2019-02-26T02:26:29.671Z,1.70
2019-02-26T02:27:33.140Z,2.00
2019-02-26T02:28:35.628Z,1.52
2019-02-26T02:29:37.011Z,1.67
2019-02-26T02:30:39.065Z,1.90
2019-02-26T02:31:40.392Z,2.15
2019-02-26T02:32:41.544Z,1.62
2019-02-26T02:33:42.691Z,1.80
2019-02-26T02:34:44.175Z,1.80
2019-02-26T02:35:45.418Z,1.60
2019-02-26T02:36:46.579Z,1.60
2019-02-26T02:37:47.744Z,1.80
2019-02-26T02:38:48.882Z,1.62
2019-02-26T02:39:50.032Z,1.70
2019-02-26T02:40:52.542Z,1.17
2019-02-26T02:41:54.943Z,1.42
2019-02-26T02:42:56.277Z,1.50
2019-02-26T02:43:57.423Z,1.52
2019-02-26T02:44:58.561Z,1.20
2019-02-26T02:46:01.351Z,1.82
2019-02-26T02:47:04.289Z,1.40
2019-02-26T02:48:06.270Z,1.30
2019-02-26T02:49:09.830Z,1.80
2019-02-26T02:50:15.280Z,1.47
2019-02-26T02:51:16.037Z,1.65
2019-02-26T02:52:17.180Z,1.50
2019-02-26T02:53:21.072Z,1.57
2019-02-26T02:54:23.476Z,1.55
2019-02-26T02:55:24.590Z,1.35
2019-02-26T02:56:25.843Z,1.47
2019-02-26T02:57:29.455Z,1.60
2019-02-26T02:58:30.030Z,1.42
2019-02-26T02:59:33.990Z,1.52
2019-02-26T03:00:34.530Z,2.00
2019-02-26T03:01:35.761Z,1.50
2019-02-26T03:02:40.492Z,1.27
2019-02-26T03:03:40.069Z,1.67
2019-02-26T03:04:41.248Z,1.62
2019-02-26T03:05:43.817Z,1.30
2019-02-26T03:06:45.435Z,1.50
2019-02-26T03:07:50.753Z,1.27
2019-02-26T03:08:50.988Z,1.67
2019-02-26T03:09:52.825Z,1.40
2019-02-26T03:10:53.963Z,1.57
2019-02-26T03:11:55.123Z,1.37
2019-02-26T03:12:57.787Z,1.42
2019-02-26T03:13:59.438Z,1.40
2019-02-26T03:15:02.355Z,1.20
2019-02-26T03:16:03.748Z,1.67
2019-02-26T03:17:06.394Z,1.52
2019-02-26T03:18:09.881Z,1.30
2019-02-26T03:19:12.192Z,1.32
2019-02-26T03:20:14.397Z,1.57
2019-02-26T03:21:16.800Z,1.07
2019-02-26T03:22:21.423Z,1.47
2019-02-26T03:23:21.736Z,0.98
2019-02-26T03:24:25.499Z,1.20
2019-02-26T03:25:27.192Z,1.30
2019-02-26T03:26:28.994Z,1.60
2019-02-26T03:27:31.165Z,1.10
2019-02-26T03:28:37.116Z,1.20
2019-02-26T03:29:36.253Z,1.40
2019-02-26T03:30:40.172Z,1.55
2019-02-26T03:31:46.271Z,1.15
2019-02-26T03:32:45.918Z,1.45
2019-02-26T03:33:46.540Z,1.30
2019-02-26T03:34:47.711Z,1.05
2019-02-26T03:35:49.198Z,1.43
2019-02-26T03:36:50.340Z,1.30
2019-02-26T03:37:54.599Z,1.22
2019-02-26T03:38:56.580Z,1.27
2019-02-26T03:39:59.955Z,0.90
2019-02-26T03:41:03.270Z,1.17
2019-02-26T03:42:04.067Z,1.15
2019-02-26T03:43:07.500Z,1.10
2019-02-26T03:44:08.846Z,1.12
2019-02-26T03:45:12.816Z,1.00
2019-02-26T03:46:13.957Z,1.10
2019-02-26T03:47:16.288Z,1.30
2019-02-26T03:48:20.250Z,0.78
2019-02-26T03:49:26.399Z,1.40
2019-02-26T03:50:27.058Z,1.30
2019-02-26T03:51:27.433Z,1.02
2019-02-26T03:52:29.009Z,1.15
2019-02-26T03:53:34.245Z,0.93
2019-02-26T03:54:37.199Z,0.90
2019-02-26T03:55:39.151Z,1.07
2019-02-26T03:56:40.759Z,1.30
2019-02-26T03:57:46.915Z,0.93
2019-02-26T03:58:45.337Z,1.10
2019-02-26T03:59:46.583Z,1.00
2019-02-26T04:00:47.860Z,1.00
2019-02-26T04:01:48.995Z,1.00
2019-02-26T04:02:51.632Z,1.02
2019-02-26T04:03:54.657Z,0.90
2019-02-26T04:04:57.086Z,0.95
2019-02-26T04:06:00.418Z,0.93
2019-02-26T04:07:10.688Z,0.82
2019-02-26T04:08:11.157Z,0.70
2019-02-26T04:09:15.942Z,1.12
2019-02-26T04:10:15.555Z,0.60
2019-02-26T04:11:19.401Z,0.80
2019-02-26T04:12:20.884Z,1.00
2019-02-26T04:13:22.315Z,0.75
2019-02-26T04:14:25.592Z,0.93
2019-02-26T04:15:27.883Z,0.80
2019-02-26T04:16:32.019Z,0.80
2019-02-26T04:17:33.655Z,0.80
2019-02-26T04:18:36.123Z,1.10
2019-02-26T04:19:37.417Z,0.70
2019-02-26T04:20:43.372Z,0.80
2019-02-26T04:22:20.987Z,0.90
2019-02-26T04:23:22.041Z,0.78
2019-02-26T04:24:25.763Z,0.85
2019-02-26T04:25:42.273Z,0.90
2019-02-26T04:27:05.391Z,1.05
2019-02-26T04:28:13.133Z,0.80
2019-02-26T04:29:17.840Z,0.78
2019-02-26T04:30:36.522Z,0.60
2019-02-26T04:31:54.679Z,0.62
2019-02-26T04:33:07.208Z,0.88
2019-02-26T04:34:12.115Z,0.62
2019-02-26T04:35:16.128Z,0.55
2019-02-26T04:36:23.658Z,0.47
2019-02-26T04:37:38.588Z,0.70
2019-02-26T04:39:22.105Z,0.55
2019-02-26T04:40:28.327Z,1.05
2019-02-26T04:41:32.734Z,0.50
2019-02-26T04:42:46.134Z,0.65
2019-02-26T04:44:06.120Z,0.43
2019-02-26T04:45:20.233Z,0.80
2019-02-26T04:46:25.528Z,0.60
2019-02-26T04:47:33.832Z,0.45
2019-02-26T04:48:41.020Z,0.60
2019-02-26T04:49:42.997Z,0.40
2019-02-26T04:50:44.662Z,0.55
2019-02-26T04:51:47.953Z,0.50
2019-02-26T04:52:48.977Z,0.70
2019-02-26T04:53:51.905Z,0.80
2019-02-26T04:54:53.152Z,0.53
2019-02-26T04:55:54.268Z,0.78
2019-02-26T04:56:55.584Z,0.50
2019-02-26T04:57:56.798Z,0.50
2019-02-26T04:58:58.092Z,0.70
2019-02-26T05:00:01.243Z,0.60
2019-02-26T05:01:04.235Z,0.42
2019-02-26T05:02:05.333Z,0.50
2019-02-26T05:03:08.627Z,0.65
2019-02-26T05:04:09.604Z,0.70
2019-02-26T05:05:10.693Z,0.50
2019-02-26T05:06:11.924Z,0.60
2019-02-26T05:07:16.102Z,0.45
2019-02-26T05:08:17.759Z,0.70
2019-02-26T05:09:19.194Z,0.60
2019-02-26T05:10:21.054Z,0.60
2019-02-26T05:11:31.769Z,0.70
2019-02-26T05:12:30.256Z,0.37
2019-02-26T05:13:32.125Z,0.80
2019-02-26T05:14:32.419Z,0.40
2019-02-26T05:15:33.538Z,0.47
2019-02-26T05:16:37.001Z,0.60
2019-02-26T05:17:37.649Z,0.50
2019-02-26T05:18:39.039Z,0.30
2019-02-26T05:19:43.445Z,0.30
2019-02-26T05:20:48.099Z,0.30
2019-02-26T05:21:46.449Z,0.40
2019-02-26T05:22:48.161Z,0.50
2019-02-26T05:23:51.782Z,0.60
2019-02-26T05:24:52.870Z,0.50
2019-02-26T05:25:59.857Z,0.33
2019-02-26T05:26:58.130Z,0.50
2019-02-26T05:27:59.344Z,0.45
2019-02-26T05:29:00.457Z,0.40
2019-02-26T05:30:01.586Z,0.35
2019-02-26T05:31:03.637Z,0.35
2019-02-26T05:32:07.266Z,0.40
2019-02-26T05:33:08.837Z,0.40
2019-02-26T05:34:12.219Z,0.50
2019-02-26T05:35:14.378Z,0.50
2019-02-26T05:36:17.242Z,0.23
2019-02-26T05:37:18.556Z,0.70
2019-02-26T05:38:19.691Z,0.40
2019-02-26T05:39:21.738Z,0.50
2019-02-26T05:40:26.980Z,0.30
2019-02-26T05:41:28.094Z,0.60
2019-02-26T05:42:29.208Z,0.47
2019-02-26T05:43:33.172Z,0.40
2019-02-26T05:44:33.342Z,0.20
2019-02-26T05:45:35.617Z,0.33
2019-02-26T05:46:37.104Z,0.47
2019-02-26T05:47:38.329Z,0.53
2019-02-26T05:48:40.692Z,0.45
2019-02-26T05:49:45.356Z,0.30
2019-02-26T05:50:45.779Z,0.28
2019-02-26T05:51:46.997Z,0.50
2019-02-26T05:52:50.392Z,0.50
2019-02-26T05:53:51.130Z,0.35
2019-02-26T05:54:52.739Z,0.40
2019-02-26T05:55:55.972Z,0.35
2019-02-26T05:56:57.122Z,0.40
2019-02-26T05:57:58.233Z,0.40
2019-02-26T05:59:02.097Z,0.40
2019-02-26T06:00:04.766Z,0.33
2019-02-26T06:01:06.002Z,0.40
2019-02-26T06:02:07.124Z,0.37
2019-02-26T06:03:09.663Z,0.40
2019-02-26T06:04:12.310Z,0.53
2019-02-26T06:05:17.129Z,0.53
2019-02-26T06:06:17.522Z,0.37
2019-02-26T06:07:21.754Z,0.40
2019-02-26T06:08:25.658Z,0.20
2019-02-26T06:09:26.120Z,0.40
2019-02-26T06:10:29.845Z,0.40
2019-02-26T06:11:33.424Z,0.40
2019-02-26T06:12:35.581Z,0.30
2019-02-26T06:13:38.256Z,0.20
2019-02-26T06:14:40.105Z,0.30
2019-02-26T06:15:41.220Z,0.33
2019-02-26T06:16:43.223Z,0.30
2019-02-26T06:17:46.317Z,0.30
2019-02-26T06:18:49.118Z,0.23
2019-02-26T06:19:53.055Z,0.30
2019-02-26T06:20:56.013Z,0.40
2019-02-26T06:21:57.305Z,0.30
2019-02-26T06:22:58.424Z,0.40
2019-02-26T06:23:59.542Z,0.50
2019-02-26T06:25:04.077Z,0.42
2019-02-26T06:26:13.306Z,0.40
2019-02-26T06:27:13.024Z,0.78
2019-02-26T06:28:13.588Z,0.30
2019-02-26T06:29:15.465Z,0.50
2019-02-26T06:30:16.906Z,0.60
2019-02-26T06:31:19.878Z,0.30
2019-02-26T06:32:21.036Z,0.33
2019-02-26T06:33:22.153Z,0.53
2019-02-26T06:34:23.270Z,0.50
2019-02-26T06:35:24.387Z,0.40
2019-02-26T06:36:26.521Z,0.40
2019-02-26T06:37:30.814Z,0.30
2019-02-26T06:38:32.837Z,0.40
2019-02-26T06:39:36.308Z,0.30
2019-02-26T06:40:39.274Z,0.42
2019-02-26T06:41:41.931Z,0.30
2019-02-26T06:42:43.699Z,0.35
2019-02-26T06:43:47.702Z,0.37
2019-02-26T06:44:49.419Z,0.30
2019-02-26T06:45:50.866Z,0.47
2019-02-26T06:46:51.983Z,0.60
2019-02-26T06:47:54.628Z,0.40
2019-02-26T06:48:56.132Z,0.50
2019-02-26T06:49:57.247Z,0.40
2019-02-26T06:51:00.438Z,0.37
2019-02-26T06:52:01.378Z,0.55
2019-02-26T06:53:04.379Z,0.20
2019-02-26T06:54:05.565Z,0.57
2019-02-26T06:55:08.880Z,0.40
2019-02-26T06:56:09.992Z,0.40
2019-02-26T06:57:11.108Z,0.50
2019-02-26T06:58:17.963Z,0.30
2019-02-26T06:59:29.465Z,0.40
2019-02-26T07:00:30.877Z,0.40
2019-02-26T07:01:32.794Z,0.45
2019-02-26T07:02:35.015Z,0.55
2019-02-26T07:03:36.146Z,0.50
2019-02-26T07:04:37.257Z,0.15
2019-02-26T07:05:38.483Z,0.30
2019-02-26T07:06:39.596Z,0.50
2019-02-26T07:07:40.908Z,0.35
2019-02-26T07:08:44.030Z,0.20
2019-02-26T07:09:45.094Z,0.50
2019-02-26T07:10:46.219Z,0.40
2019-02-26T07:11:47.357Z,0.42
2019-02-26T07:12:50.616Z,0.40
2019-02-26T07:13:53.706Z,0.50
2019-02-26T07:14:55.481Z,0.40
2019-02-26T07:15:57.953Z,0.47
2019-02-26T07:16:59.626Z,0.42
2019-02-26T07:18:04.395Z,0.33
2019-02-26T07:19:06.409Z,0.53
2019-02-26T07:20:08.010Z,0.40
2019-02-26T07:21:09.129Z,0.30
2019-02-26T07:22:11.600Z,0.50
2019-02-26T07:23:15.443Z,0.30
2019-02-26T07:24:18.077Z,0.30
2019-02-26T07:25:19.316Z,0.40
2019-02-26T07:26:20.819Z,0.40
2019-02-26T07:27:23.551Z,0.40
2019-02-26T07:28:26.838Z,0.40
2019-02-26T07:29:30.716Z,0.50
2019-02-26T07:30:32.612Z,0.37
2019-02-26T07:31:35.544Z,0.37
2019-02-26T07:32:38.262Z,0.33
2019-02-26T07:33:39.912Z,0.45
2019-02-26T07:34:42.792Z,0.40
2019-02-26T07:35:44.217Z,0.30
2019-02-26T07:36:46.100Z,0.35
2019-02-26T07:37:48.456Z,0.23
2019-02-26T07:38:51.979Z,0.30
2019-02-26T07:39:52.741Z,0.30
2019-02-26T07:40:54.323Z,0.23
2019-02-26T07:41:56.874Z,0.30
2019-02-26T07:42:58.007Z,0.30
2019-02-26T07:44:00.090Z,0.40
2019-02-26T07:45:01.256Z,0.23
2019-02-26T07:46:02.477Z,0.30
2019-02-26T07:47:06.088Z,0.30
2019-02-26T07:48:06.652Z,0.30
2019-02-26T07:49:07.881Z,0.40
2019-02-26T07:50:12.406Z,0.40
2019-02-26T07:51:13.424Z,0.23
2019-02-26T07:52:14.545Z,0.30
2019-02-26T07:53:17.964Z,0.30
2019-02-26T07:54:18.680Z,0.10
2019-02-26T07:55:19.932Z,0.40
2019-02-26T07:56:22.978Z,0.40
2019-02-26T07:57:25.883Z,0.30
2019-02-26T07:58:27.186Z,0.40
2019-02-26T07:59:32.353Z,0.35
2019-02-26T08:00:32.888Z,0.50
2019-02-26T08:01:35.422Z,0.20
2019-02-26T08:02:37.469Z,0.40
2019-02-26T08:03:38.584Z,0.42
2019-02-26T08:04:41.821Z,0.30
2019-02-26T08:05:42.760Z,0.30
2019-02-26T08:06:43.880Z,0.30
2019-02-26T08:07:46.641Z,0.50
2019-02-26T08:08:48.953Z,0.30
2019-02-26T08:09:50.125Z,0.30
2019-02-26T08:10:53.119Z,0.40
2019-02-26T08:11:54.291Z,0.20
2019-02-26T08:12:56.673Z,0.30
2019-02-26T08:13:59.252Z,0.45
2019-02-26T08:15:10.145Z,0.23
2019-02-26T08:16:10.946Z,0.30
2019-02-26T08:17:12.056Z,0.20
2019-02-26T08:18:13.170Z,0.25
2019-02-26T08:19:14.283Z,0.30
2019-02-26T08:20:15.449Z,0.20
2019-02-26T08:21:17.656Z,0.45
2019-02-26T08:22:19.594Z,0.30
2019-02-26T08:23:21.653Z,0.20
2019-02-26T08:24:24.632Z,0.20
2019-02-26T08:25:25.960Z,0.30
2019-02-26T08:26:29.137Z,0.25
2019-02-26T08:27:30.867Z,0.40
2019-02-26T08:28:33.153Z,0.30
2019-02-26T08:29:36.128Z,0.30
2019-02-26T08:30:40.214Z,0.20
2019-02-26T08:31:42.524Z,0.30
2019-02-26T08:32:48.371Z,0.47
2019-02-26T08:33:50.942Z,0.23
2019-02-26T08:34:49.792Z,0.20
2019-02-26T08:35:50.919Z,0.30
2019-02-26T08:36:52.085Z,0.30
2019-02-26T08:37:53.200Z,0.33
2019-02-26T08:38:56.451Z,0.20
2019-02-26T08:39:57.776Z,0.20
2019-02-26T08:40:59.461Z,0.10
2019-02-26T08:42:05.300Z,0.20
2019-02-26T08:43:06.419Z,0.23
2019-02-26T08:44:07.536Z,0.20
2019-02-26T08:45:17.845Z,0.30
2019-02-26T08:46:20.217Z,0.20
2019-02-26T08:47:23.381Z,0.30
2019-02-26T08:48:25.038Z,0.40
2019-02-26T08:49:27.402Z,0.30
2019-02-26T08:50:32.750Z,0.30
2019-02-26T08:51:31.539Z,0.25
2019-02-26T08:52:32.667Z,0.30
2019-02-26T08:53:33.789Z,0.30
2019-02-26T08:54:35.839Z,0.20
2019-02-26T08:55:37.238Z,0.30
2019-02-26T08:56:38.707Z,0.35
2019-02-26T08:57:41.477Z,0.37
2019-02-26T08:58:43.636Z,0.20
2019-02-26T08:59:47.303Z,0.28
2019-02-26T09:00:48.641Z,0.20
2019-02-26T09:01:49.757Z,0.30
2019-02-26T09:02:53.918Z,0.40
2019-02-26T09:03:55.831Z,0.23
2019-02-26T09:04:59.138Z,0.30
2019-02-26T09:06:11.015Z,0.62
2019-02-26T09:07:03.193Z,0.30
2019-02-26T09:08:05.929Z,0.28
2019-02-26T09:09:07.442Z,0.30
2019-02-26T09:10:15.825Z,0.30
2019-02-26T09:11:16.735Z,0.25
2019-02-26T09:12:19.746Z,0.20
2019-02-26T09:13:20.906Z,0.53
2019-02-26T09:14:22.021Z,0.37
2019-02-26T09:15:23.240Z,0.28
2019-02-26T09:16:25.675Z,0.10
2019-02-26T09:17:29.913Z,0.30
2019-02-26T09:18:31.543Z,0.20
2019-02-26T09:19:35.425Z,0.20
2019-02-26T09:20:36.486Z,0.47
2019-02-26T09:21:41.739Z,0.20
2019-02-26T09:22:45.678Z,0.30
2019-02-26T09:23:47.427Z,0.30
2019-02-26T09:24:46.881Z,0.30
2019-02-26T09:25:54.192Z,0.30
2019-02-26T09:26:54.837Z,0.28
2019-02-26T09:27:55.885Z,0.20
2019-02-26T09:28:57.205Z,0.37
2019-02-26T09:29:58.441Z,0.40
2019-02-26T09:31:03.733Z,0.40
2019-02-26T09:32:02.686Z,0.23
2019-02-26T09:33:05.847Z,0.33
2019-02-26T09:34:06.967Z,0.23
2019-02-26T09:35:10.585Z,0.40
2019-02-26T09:36:14.931Z,0.30
2019-02-26T09:37:14.824Z,0.50
2019-02-26T09:38:17.631Z,0.30
2019-02-26T09:39:19.076Z,0.30
2019-02-26T09:40:23.432Z,0.30
2019-02-26T09:41:23.212Z,0.30
2019-02-26T09:42:25.578Z,0.30
2019-02-26T09:43:27.563Z,0.30
2019-02-26T09:44:30.972Z,0.30
2019-02-26T09:45:32.018Z,0.30
2019-02-26T09:46:35.884Z,0.30
2019-02-26T09:47:36.292Z,0.40
2019-02-26T09:48:38.327Z,0.30
2019-02-26T09:49:40.576Z,0.40
2019-02-26T09:50:43.759Z,0.28
2019-02-26T09:51:44.712Z,0.40
2019-02-26T09:52:47.885Z,0.37
2019-02-26T09:53:50.089Z,0.40
2019-02-26T09:54:52.992Z,0.20
2019-02-26T09:55:55.033Z,0.30
2019-02-26T09:56:56.154Z,0.20
2019-02-26T09:57:57.267Z,0.20
2019-02-26T09:58:58.485Z,0.30
2019-02-26T10:00:00.661Z,0.30
2019-02-26T10:01:02.744Z,0.30
2019-02-26T10:02:05.928Z,0.30
2019-02-26T10:03:08.391Z,0.37
2019-02-26T10:04:10.104Z,0.30
2019-02-26T10:05:13.974Z,0.50
2019-02-26T10:06:16.774Z,0.50
2019-02-26T10:07:18.967Z,0.30
2019-02-26T10:08:22.221Z,0.20
2019-02-26T10:09:23.212Z,0.42
2019-02-26T10:10:26.051Z,0.47
2019-02-26T10:11:28.022Z,0.40
2019-02-26T10:12:29.876Z,0.30
2019-02-26T10:13:32.280Z,0.30
2019-02-26T10:14:35.668Z,0.20
2019-02-26T10:15:39.286Z,0.33
2019-02-26T10:16:39.759Z,0.30
2019-02-26T10:17:42.751Z,0.47
2019-02-26T10:18:45.027Z,0.42
2019-02-26T10:19:47.010Z,0.28
2019-02-26T10:20:49.926Z,0.30
2019-02-26T10:21:51.267Z,0.30
2019-02-26T10:22:53.217Z,0.40
2019-02-26T10:23:56.714Z,0.40
2019-02-26T10:24:58.413Z,0.30
2019-02-26T10:26:00.211Z,0.35
2019-02-26T10:27:05.455Z,0.45
2019-02-26T10:28:08.647Z,0.30
2019-02-26T10:29:08.686Z,0.30
2019-02-26T10:30:14.385Z,0.40
2019-02-26T10:31:15.432Z,0.40
2019-02-26T10:32:16.651Z,0.70
2019-02-26T10:33:20.876Z,0.30
2019-02-26T10:34:24.989Z,0.40
2019-02-26T10:35:32.553Z,0.40
2019-02-26T10:36:30.333Z,0.42
2019-02-26T10:37:31.895Z,0.30
2019-02-26T10:38:33.648Z,0.20
2019-02-26T10:39:36.177Z,0.40
2019-02-26T10:40:50.767Z,0.55
2019-02-26T10:41:42.277Z,0.60
2019-02-26T10:42:43.365Z,0.42
2019-02-26T10:43:44.489Z,0.20
2019-02-26T10:44:45.613Z,0.40
2019-02-26T10:45:47.442Z,0.20
2019-02-26T10:46:49.868Z,0.35
2019-02-26T10:47:51.733Z,0.40
2019-02-26T10:48:54.001Z,0.30
2019-02-26T10:49:56.483Z,0.33
2019-02-26T10:50:57.690Z,0.30
2019-02-26T10:51:58.831Z,0.30
2019-02-26T10:53:06.746Z,0.28
2019-02-26T10:54:05.699Z,0.35
2019-02-26T10:55:07.285Z,0.30
2019-02-26T10:56:08.413Z,0.30
2019-02-26T10:57:11.233Z,0.47
2019-02-26T10:58:13.310Z,0.33
2019-02-26T10:59:15.883Z,0.30
2019-02-26T11:00:27.944Z,0.50
2019-02-26T11:01:30.782Z,0.60
2019-02-26T11:02:31.550Z,0.40
2019-02-26T11:03:35.438Z,0.50
2019-02-26T11:04:40.918Z,0.30
2019-02-26T11:05:39.844Z,0.37
2019-02-26T11:06:44.308Z,0.40
2019-02-26T11:07:44.873Z,0.33
2019-02-26T11:08:47.559Z,0.47
2019-02-26T11:09:51.060Z,0.50
2019-02-26T11:10:52.528Z,0.40
2019-02-26T11:11:54.888Z,0.30
2019-02-26T11:12:59.610Z,0.45
2019-02-26T11:13:59.957Z,0.30
2019-02-26T11:15:02.437Z,0.62
2019-02-26T11:16:04.088Z,0.40
2019-02-26T11:17:05.200Z,0.25
2019-02-26T11:18:08.077Z,0.40
2019-02-26T11:19:11.831Z,0.40
2019-02-26T11:20:13.870Z,0.40
2019-02-26T11:21:15.242Z,0.30
2019-02-26T11:22:18.309Z,0.60
2019-02-26T11:23:19.382Z,0.40
2019-02-26T11:24:23.054Z,0.37
2019-02-26T11:25:24.823Z,0.30
2019-02-26T11:26:26.647Z,0.50
2019-02-26T11:27:27.762Z,0.40
2019-02-26T11:28:32.617Z,0.40
2019-02-26T11:29:33.807Z,0.40
2019-02-26T11:30:35.053Z,0.42
2019-02-26T11:31:36.985Z,0.60
2019-02-26T11:32:40.387Z,0.57
2019-02-26T11:33:42.219Z,0.30
2019-02-26T11:34:43.335Z,0.57
2019-02-26T11:35:47.138Z,0.40
2019-02-26T11:36:47.570Z,0.35
2019-02-26T11:37:51.755Z,0.50
2019-02-26T11:38:51.747Z,0.42
2019-02-26T11:39:55.017Z,0.40
2019-02-26T11:40:55.888Z,0.30
2019-02-26T11:41:59.372Z,0.37
2019-02-26T11:43:08.675Z,0.55
2019-02-26T11:44:07.357Z,0.50
2019-02-26T11:45:11.790Z,0.35
2019-02-26T11:46:12.530Z,0.50
2019-02-26T11:47:16.069Z,0.70
2019-02-26T11:48:17.598Z,0.50
2019-02-26T11:49:19.873Z,0.55
2019-02-26T11:50:27.095Z,0.57
2019-02-26T11:51:26.165Z,0.40
2019-02-26T11:52:27.446Z,0.25
2019-02-26T11:53:29.920Z,0.60
2019-02-26T11:54:34.377Z,0.40
2019-02-26T11:55:37.395Z,0.37
2019-02-26T11:56:42.043Z,0.30
2019-02-26T11:57:43.181Z,0.77
2019-02-26T11:58:44.021Z,0.25
2019-02-26T11:59:45.145Z,0.30
2019-02-26T12:00:51.044Z,0.50
2019-02-26T12:01:54.201Z,0.33
2019-02-26T12:02:55.640Z,0.30
2019-02-26T12:04:02.535Z,0.40
2019-02-26T12:05:00.536Z,0.40
2019-02-26T12:06:02.804Z,0.30
2019-02-26T12:07:06.599Z,0.20
2019-02-26T12:08:07.055Z,0.65
2019-02-26T12:09:10.742Z,0.50
2019-02-26T12:10:14.711Z,0.20
2019-02-26T12:11:17.727Z,0.45
2019-02-26T12:12:19.060Z,0.40
2019-02-26T12:13:22.220Z,0.37
2019-02-26T12:14:23.413Z,0.57
2019-02-26T12:15:24.570Z,0.47
2019-02-26T12:16:28.420Z,0.60
2019-02-26T12:17:28.800Z,0.45
2019-02-26T12:18:29.919Z,0.30
2019-02-26T12:19:34.267Z,0.45
2019-02-26T12:20:35.560Z,0.60
2019-02-26T12:21:37.226Z,0.40
2019-02-26T12:22:38.356Z,0.40
2019-02-26T12:23:41.673Z,0.50
2019-02-26T12:24:42.476Z,0.40
2019-02-26T12:25:43.601Z,0.70
2019-02-26T12:26:47.012Z,0.73
2019-02-26T12:27:48.258Z,0.68
2019-02-26T12:28:49.467Z,0.60
2019-02-26T12:29:51.732Z,0.50
2019-02-26T12:30:53.616Z,0.70
2019-02-26T12:31:55.736Z,0.70
2019-02-26T12:32:57.859Z,0.42
2019-02-26T12:33:58.975Z,0.60
2019-02-26T12:35:00.283Z,0.60
2019-02-26T12:36:02.576Z,0.40
2019-02-26T12:37:08.361Z,0.85
2019-02-26T12:38:17.751Z,0.70
2019-02-26T12:39:10.496Z,0.80
2019-02-26T12:40:19.196Z,0.70
2019-02-26T12:41:21.011Z,0.60
2019-02-26T12:42:22.299Z,0.62
2019-02-26T12:43:23.526Z,0.72
2019-02-26T12:44:24.641Z,0.55
2019-02-26T12:45:28.403Z,0.65
2019-02-26T12:46:31.218Z,0.72
2019-02-26T12:47:31.804Z,0.60
2019-02-26T12:48:36.587Z,0.62
2019-02-26T12:49:38.441Z,0.65
2019-02-26T12:50:40.331Z,0.80
2019-02-26T12:51:42.055Z,0.70
2019-02-26T12:52:44.730Z,0.55
2019-02-26T12:53:49.620Z,0.85
2019-02-26T12:54:49.324Z,0.68
2019-02-26T12:55:50.544Z,0.72
2019-02-26T12:56:54.782Z,0.90
2019-02-26T12:57:56.427Z,0.70
2019-02-26T12:58:57.794Z,0.90
2019-02-26T12:59:58.909Z,0.68
2019-02-26T13:01:00.129Z,0.65
2019-02-26T13:02:01.258Z,0.60
2019-02-26T13:03:05.589Z,1.00
2019-02-26T13:04:06.155Z,0.53
2019-02-26T13:05:11.464Z,0.93
2019-02-26T13:06:15.332Z,0.93
2019-02-26T13:07:15.801Z,0.80
2019-02-26T13:08:19.610Z,1.07
2019-02-26T13:09:19.947Z,0.80
2019-02-26T13:10:23.061Z,1.10
2019-02-26T13:11:25.134Z,0.93
2019-02-26T13:12:31.566Z,0.98
2019-02-26T13:13:29.582Z,1.12
2019-02-26T13:14:30.703Z,0.80
2019-02-26T13:15:31.828Z,0.98
2019-02-26T13:16:32.951Z,1.05
2019-02-26T13:17:34.085Z,0.85
2019-02-26T13:18:35.213Z,1.00
2019-02-26T13:19:37.166Z,1.25
2019-02-26T13:20:38.640Z,1.15
2019-02-26T13:21:42.898Z,1.12
2019-02-26T13:22:45.832Z,1.00
2019-02-26T13:23:45.821Z,1.00
2019-02-26T13:24:46.941Z,0.80
2019-02-26T13:25:48.056Z,1.25
2019-02-26T13:26:51.086Z,0.95
2019-02-26T13:27:52.212Z,1.10
2019-02-26T13:28:56.058Z,1.10
2019-02-26T13:29:57.167Z,0.95
2019-02-26T13:31:02.443Z,0.72
2019-02-26T13:32:01.694Z,0.95
2019-02-26T13:33:05.165Z,0.95
2019-02-26T13:34:05.910Z,1.07
2019-02-26T13:35:09.025Z,1.12
2019-02-26T13:36:10.181Z,1.07
2019-02-26T13:37:11.304Z,0.80
2019-02-26T13:38:12.429Z,0.82
2019-02-26T13:39:21.958Z,0.90
2019-02-26T13:40:18.468Z,1.00
2019-02-26T13:41:29.528Z,1.00
2019-02-26T13:42:22.840Z,0.98
2019-02-26T13:43:23.950Z,0.93
2019-02-26T13:44:25.176Z,0.85
2019-02-26T13:45:26.788Z,1.10
2019-02-26T13:46:27.997Z,1.35
2019-02-26T13:47:29.322Z,1.02
2019-02-26T13:48:30.449Z,1.15
2019-02-26T13:49:31.564Z,1.20
2019-02-26T13:50:33.781Z,1.05
2019-02-26T13:51:35.000Z,1.00
2019-02-26T13:52:36.116Z,1.07
2019-02-26T13:53:37.270Z,0.90